sensor_id;sensor_type;location;lat;lon;timestamp;temperature;humidity
39021;DHT22;25188;51.958;5.842;2023-07-22T00:02:23;16.00;80.40
39021;DHT22;25188;51.958;5.842;2023-07-22T00:04:49;16.00;80.60
39021;DHT22;25188;51.958;5.842;2023-07-22T00:07:15;16.00;80.60
39021;DHT22;25188;51.958;5.842;2023-07-22T00:09:42;16.00;80.80
39021;DHT22;25188;51.958;5.842;2023-07-22T00:12:08;15.90;81.50
39021;DHT22;25188;51.958;5.842;2023-07-22T00:14:38;15.90;81.00
39021;DHT22;25188;51.958;5.842;2023-07-22T00:17:04;15.90;81.80
39021;DHT22;25188;51.958;5.842;2023-07-22T00:19:30;15.80;81.20
39021;DHT22;25188;51.958;5.842;2023-07-22T00:21:56;15.80;81.40
39021;DHT22;25188;51.958;5.842;2023-07-22T00:24:21;15.80;81.60
39021;DHT22;25188;51.958;5.842;2023-07-22T00:26:48;15.80;81.70
39021;DHT22;25188;51.958;5.842;2023-07-22T00:29:15;15.70;81.80
39021;DHT22;25188;51.958;5.842;2023-07-22T00:31:41;15.70;82.00
39021;DHT22;25188;51.958;5.842;2023-07-22T00:34:06;15.70;82.20
39021;DHT22;25188;51.958;5.842;2023-07-22T00:36:32;15.70;82.30
39021;DHT22;25188;51.958;5.842;2023-07-22T00:38:58;15.70;82.40
39021;DHT22;25188;51.958;5.842;2023-07-22T00:41:23;15.70;82.70
39021;DHT22;25188;51.958;5.842;2023-07-22T00:43:49;15.60;82.80
39021;DHT22;25188;51.958;5.842;2023-07-22T00:46:14;15.70;83.00
39021;DHT22;25188;51.958;5.842;2023-07-22T00:48:40;15.70;83.20
39021;DHT22;25188;51.958;5.842;2023-07-22T00:51:06;15.70;83.30
39021;DHT22;25188;51.958;5.842;2023-07-22T00:53:32;15.60;83.40
39021;DHT22;25188;51.958;5.842;2023-07-22T00:55:58;15.70;83.70
39021;DHT22;25188;51.958;5.842;2023-07-22T00:58:24;15.60;83.80
39021;DHT22;25188;51.958;5.842;2023-07-22T01:00:49;15.60;84.00
39021;DHT22;25188;51.958;5.842;2023-07-22T01:03:15;15.70;84.10
39021;DHT22;25188;51.958;5.842;2023-07-22T01:05:41;15.60;84.20
39021;DHT22;25188;51.958;5.842;2023-07-22T01:08:07;15.70;84.30
39021;DHT22;25188;51.958;5.842;2023-07-22T01:10:32;15.70;84.50
39021;DHT22;25188;51.958;5.842;2023-07-22T01:12:58;15.70;84.60
39021;DHT22;25188;51.958;5.842;2023-07-22T01:15:25;15.70;84.70
39021;DHT22;25188;51.958;5.842;2023-07-22T01:17:51;15.70;84.80
39021;DHT22;25188;51.958;5.842;2023-07-22T01:20:17;15.70;84.90
39021;DHT22;25188;51.958;5.842;2023-07-22T01:22:54;15.70;85.00
39021;DHT22;25188;51.958;5.842;2023-07-22T01:25:20;15.70;85.10
39021;DHT22;25188;51.958;5.842;2023-07-22T01:27:50;15.70;85.10
39021;DHT22;25188;51.958;5.842;2023-07-22T01:30:16;15.80;85.20
39021;DHT22;25188;51.958;5.842;2023-07-22T01:32:42;15.70;85.10
39021;DHT22;25188;51.958;5.842;2023-07-22T01:35:08;15.70;85.20
39021;DHT22;25188;51.958;5.842;2023-07-22T01:37:34;15.80;85.40
39021;DHT22;25188;51.958;5.842;2023-07-22T01:40:00;15.80;85.60
39021;DHT22;25188;51.958;5.842;2023-07-22T01:42:27;15.70;85.70
39021;DHT22;25188;51.958;5.842;2023-07-22T01:44:53;15.70;85.80
39021;DHT22;25188;51.958;5.842;2023-07-22T01:47:18;15.70;85.90
39021;DHT22;25188;51.958;5.842;2023-07-22T01:49:44;15.70;86.00
39021;DHT22;25188;51.958;5.842;2023-07-22T01:52:10;15.70;86.20
39021;DHT22;25188;51.958;5.842;2023-07-22T01:54:36;15.60;86.20
39021;DHT22;25188;51.958;5.842;2023-07-22T01:57:01;15.60;86.40
39021;DHT22;25188;51.958;5.842;2023-07-22T01:59:27;15.60;86.60
39021;DHT22;25188;51.958;5.842;2023-07-22T02:01:53;15.60;86.80
39021;DHT22;25188;51.958;5.842;2023-07-22T02:04:18;15.50;86.90
39021;DHT22;25188;51.958;5.842;2023-07-22T02:06:44;15.50;87.20
39021;DHT22;25188;51.958;5.842;2023-07-22T02:09:10;15.50;87.50
39021;DHT22;25188;51.958;5.842;2023-07-22T02:11:39;15.40;87.50
39021;DHT22;25188;51.958;5.842;2023-07-22T02:14:04;15.40;87.60
39021;DHT22;25188;51.958;5.842;2023-07-22T02:16:34;15.40;87.80
39021;DHT22;25188;51.958;5.842;2023-07-22T02:19:00;15.40;87.90
39021;DHT22;25188;51.958;5.842;2023-07-22T02:21:25;15.30;88.00
39021;DHT22;25188;51.958;5.842;2023-07-22T02:23:51;15.30;88.10
39021;DHT22;25188;51.958;5.842;2023-07-22T02:26:17;15.20;88.20
39021;DHT22;25188;51.958;5.842;2023-07-22T02:28:42;15.20;88.20
39021;DHT22;25188;51.958;5.842;2023-07-22T02:31:08;15.20;88.30
39021;DHT22;25188;51.958;5.842;2023-07-22T02:33:34;15.20;88.50
39021;DHT22;25188;51.958;5.842;2023-07-22T02:35:59;15.20;88.70
39021;DHT22;25188;51.958;5.842;2023-07-22T02:38:25;15.20;88.80
39021;DHT22;25188;51.958;5.842;2023-07-22T02:40:51;15.20;88.90
39021;DHT22;25188;51.958;5.842;2023-07-22T02:43:17;15.10;89.00
39021;DHT22;25188;51.958;5.842;2023-07-22T02:45:42;15.10;89.00
39021;DHT22;25188;51.958;5.842;2023-07-22T02:48:09;15.00;89.20
39021;DHT22;25188;51.958;5.842;2023-07-22T02:50:35;15.10;89.40
39021;DHT22;25188;51.958;5.842;2023-07-22T02:53:02;15.00;89.50
39021;DHT22;25188;51.958;5.842;2023-07-22T02:55:27;15.10;89.60
39021;DHT22;25188;51.958;5.842;2023-07-22T02:57:53;15.00;89.60
39021;DHT22;25188;51.958;5.842;2023-07-22T03:00:20;15.00;89.80
39021;DHT22;25188;51.958;5.842;2023-07-22T03:02:58;15.00;90.00
39021;DHT22;25188;51.958;5.842;2023-07-22T03:05:30;15.00;90.00
39021;DHT22;25188;51.958;5.842;2023-07-22T03:07:57;14.90;90.00
39021;DHT22;25188;51.958;5.842;2023-07-22T03:10:23;14.90;90.10
39021;DHT22;25188;51.958;5.842;2023-07-22T03:12:51;14.90;90.20
39021;DHT22;25188;51.958;5.842;2023-07-22T03:15:20;14.90;90.50
39021;DHT22;25188;51.958;5.842;2023-07-22T03:17:46;14.80;90.30
39021;DHT22;25188;51.958;5.842;2023-07-22T03:20:12;14.90;90.40
39021;DHT22;25188;51.958;5.842;2023-07-22T03:22:42;14.80;90.50
39021;DHT22;25188;51.958;5.842;2023-07-22T03:25:09;14.80;90.60
39021;DHT22;25188;51.958;5.842;2023-07-22T03:27:36;14.80;90.60
39021;DHT22;25188;51.958;5.842;2023-07-22T03:30:06;14.80;90.70
39021;DHT22;25188;51.958;5.842;2023-07-22T03:32:42;14.80;90.90
39021;DHT22;25188;51.958;5.842;2023-07-22T03:35:08;14.80;90.90
39021;DHT22;25188;51.958;5.842;2023-07-22T03:37:37;14.80;91.00
39021;DHT22;25188;51.958;5.842;2023-07-22T03:40:04;14.80;91.10
39021;DHT22;25188;51.958;5.842;2023-07-22T03:42:34;14.80;91.10
39021;DHT22;25188;51.958;5.842;2023-07-22T03:45:00;14.80;91.10
39021;DHT22;25188;51.958;5.842;2023-07-22T03:47:26;14.80;91.20
39021;DHT22;25188;51.958;5.842;2023-07-22T03:49:52;14.80;91.20
39021;DHT22;25188;51.958;5.842;2023-07-22T03:52:17;14.80;91.30
39021;DHT22;25188;51.958;5.842;2023-07-22T03:54:44;14.80;91.30
39021;DHT22;25188;51.958;5.842;2023-07-22T03:57:10;14.70;91.60
39021;DHT22;25188;51.958;5.842;2023-07-22T03:59:35;14.70;91.40
39021;DHT22;25188;51.958;5.842;2023-07-22T04:02:02;14.80;91.50
39021;DHT22;25188;51.958;5.842;2023-07-22T04:04:27;14.70;91.50
39021;DHT22;25188;51.958;5.842;2023-07-22T04:06:53;14.70;91.60
39021;DHT22;25188;51.958;5.842;2023-07-22T04:09:18;14.70;91.70
39021;DHT22;25188;51.958;5.842;2023-07-22T04:11:44;14.70;91.70
39021;DHT22;25188;51.958;5.842;2023-07-22T04:14:10;14.60;91.80
39021;DHT22;25188;51.958;5.842;2023-07-22T04:16:38;14.70;91.90
39021;DHT22;25188;51.958;5.842;2023-07-22T04:19:04;14.60;92.00
39021;DHT22;25188;51.958;5.842;2023-07-22T04:21:30;14.60;92.00
39021;DHT22;25188;51.958;5.842;2023-07-22T04:23:56;14.60;92.20
39021;DHT22;25188;51.958;5.842;2023-07-22T04:26:21;14.60;92.20
39021;DHT22;25188;51.958;5.842;2023-07-22T04:28:47;14.70;92.40
39021;DHT22;25188;51.958;5.842;2023-07-22T04:31:12;14.60;92.50
39021;DHT22;25188;51.958;5.842;2023-07-22T04:33:38;14.70;92.40
39021;DHT22;25188;51.958;5.842;2023-07-22T04:36:04;14.70;92.50
39021;DHT22;25188;51.958;5.842;2023-07-22T04:38:29;14.60;92.60
39021;DHT22;25188;51.958;5.842;2023-07-22T04:40:55;14.60;92.70
39021;DHT22;25188;51.958;5.842;2023-07-22T04:43:21;14.70;92.80
39021;DHT22;25188;51.958;5.842;2023-07-22T04:45:47;14.70;92.90
39021;DHT22;25188;51.958;5.842;2023-07-22T04:48:18;14.70;92.90
39021;DHT22;25188;51.958;5.842;2023-07-22T04:50:44;14.80;93.10
39021;DHT22;25188;51.958;5.842;2023-07-22T04:53:11;14.80;93.10
39021;DHT22;25188;51.958;5.842;2023-07-22T04:55:39;14.80;93.10
39021;DHT22;25188;51.958;5.842;2023-07-22T04:58:05;14.80;93.20
39021;DHT22;25188;51.958;5.842;2023-07-22T05:00:30;14.80;93.20
39021;DHT22;25188;51.958;5.842;2023-07-22T05:02:57;14.80;93.30
39021;DHT22;25188;51.958;5.842;2023-07-22T05:05:22;14.90;93.40
39021;DHT22;25188;51.958;5.842;2023-07-22T05:07:49;14.90;93.80
39021;DHT22;25188;51.958;5.842;2023-07-22T05:10:15;14.90;93.50
39021;DHT22;25188;51.958;5.842;2023-07-22T05:12:41;14.90;93.60
39021;DHT22;25188;51.958;5.842;2023-07-22T05:15:09;15.00;93.70
39021;DHT22;25188;51.958;5.842;2023-07-22T05:17:34;15.00;93.70
39021;DHT22;25188;51.958;5.842;2023-07-22T05:20:00;15.10;93.80
39021;DHT22;25188;51.958;5.842;2023-07-22T05:22:26;15.10;93.80
39021;DHT22;25188;51.958;5.842;2023-07-22T05:24:51;15.10;93.80
39021;DHT22;25188;51.958;5.842;2023-07-22T05:27:17;15.10;93.80
39021;DHT22;25188;51.958;5.842;2023-07-22T05:29:43;15.20;93.90
39021;DHT22;25188;51.958;5.842;2023-07-22T05:32:10;15.20;93.90
39021;DHT22;25188;51.958;5.842;2023-07-22T05:34:36;15.20;93.90
39021;DHT22;25188;51.958;5.842;2023-07-22T05:37:01;15.30;94.00
39021;DHT22;25188;51.958;5.842;2023-07-22T05:39:27;15.30;94.00
39021;DHT22;25188;51.958;5.842;2023-07-22T05:41:53;15.40;94.00
39021;DHT22;25188;51.958;5.842;2023-07-22T05:44:18;15.40;94.00
39021;DHT22;25188;51.958;5.842;2023-07-22T05:46:44;15.40;94.00
39021;DHT22;25188;51.958;5.842;2023-07-22T05:49:10;15.50;94.10
39021;DHT22;25188;51.958;5.842;2023-07-22T05:51:38;15.60;94.10
39021;DHT22;25188;51.958;5.842;2023-07-22T05:54:04;15.60;94.00
39021;DHT22;25188;51.958;5.842;2023-07-22T05:56:30;15.60;94.00
39021;DHT22;25188;51.958;5.842;2023-07-22T05:58:55;15.60;93.90
39021;DHT22;25188;51.958;5.842;2023-07-22T06:01:21;15.70;93.90
39021;DHT22;25188;51.958;5.842;2023-07-22T06:03:47;15.70;93.90
39021;DHT22;25188;51.958;5.842;2023-07-22T06:06:13;15.70;93.80
39021;DHT22;25188;51.958;5.842;2023-07-22T06:08:39;15.80;93.90
39021;DHT22;25188;51.958;5.842;2023-07-22T06:11:04;15.80;93.90
39021;DHT22;25188;51.958;5.842;2023-07-22T06:13:30;15.90;94.00
39021;DHT22;25188;51.958;5.842;2023-07-22T06:15:56;16.00;94.00
39021;DHT22;25188;51.958;5.842;2023-07-22T06:18:22;16.10;93.90
39021;DHT22;25188;51.958;5.842;2023-07-22T06:20:47;16.20;93.90
39021;DHT22;25188;51.958;5.842;2023-07-22T06:23:13;16.30;93.80
39021;DHT22;25188;51.958;5.842;2023-07-22T06:25:39;16.40;93.80
39021;DHT22;25188;51.958;5.842;2023-07-22T06:28:04;16.40;93.60
39021;DHT22;25188;51.958;5.842;2023-07-22T06:30:30;16.50;93.60
39021;DHT22;25188;51.958;5.842;2023-07-22T06:32:56;16.50;93.50
39021;DHT22;25188;51.958;5.842;2023-07-22T06:35:21;16.60;93.40
39021;DHT22;25188;51.958;5.842;2023-07-22T06:37:47;16.60;93.30
39021;DHT22;25188;51.958;5.842;2023-07-22T06:40:13;16.70;93.30
39021;DHT22;25188;51.958;5.842;2023-07-22T06:42:38;16.70;93.10
39021;DHT22;25188;51.958;5.842;2023-07-22T06:45:05;16.70;92.90
39021;DHT22;25188;51.958;5.842;2023-07-22T06:47:30;16.80;92.90
39021;DHT22;25188;51.958;5.842;2023-07-22T06:49:56;16.80;92.80
39021;DHT22;25188;51.958;5.842;2023-07-22T06:52:22;16.90;92.80
39021;DHT22;25188;51.958;5.842;2023-07-22T06:54:48;17.00;92.70
39021;DHT22;25188;51.958;5.842;2023-07-22T06:57:13;17.00;92.70
39021;DHT22;25188;51.958;5.842;2023-07-22T06:59:39;17.10;92.60
39021;DHT22;25188;51.958;5.842;2023-07-22T07:02:05;17.20;92.60
39021;DHT22;25188;51.958;5.842;2023-07-22T07:04:30;17.30;92.60
39021;DHT22;25188;51.958;5.842;2023-07-22T07:06:56;17.40;92.50
39021;DHT22;25188;51.958;5.842;2023-07-22T07:09:22;17.40;92.40
39021;DHT22;25188;51.958;5.842;2023-07-22T07:11:47;17.50;92.20
39021;DHT22;25188;51.958;5.842;2023-07-22T07:14:13;17.40;92.00
39021;DHT22;25188;51.958;5.842;2023-07-22T07:16:39;17.50;92.30
39021;DHT22;25188;51.958;5.842;2023-07-22T07:19:04;17.50;91.90
39021;DHT22;25188;51.958;5.842;2023-07-22T07:21:30;17.50;91.90
39021;DHT22;25188;51.958;5.842;2023-07-22T07:23:55;17.50;91.80
39021;DHT22;25188;51.958;5.842;2023-07-22T07:26:22;17.50;91.80
39021;DHT22;25188;51.958;5.842;2023-07-22T07:28:49;17.50;91.70
39021;DHT22;25188;51.958;5.842;2023-07-22T07:31:16;17.60;91.70
39021;DHT22;25188;51.958;5.842;2023-07-22T07:33:42;17.60;91.70
39021;DHT22;25188;51.958;5.842;2023-07-22T07:36:08;17.70;91.70
39021;DHT22;25188;51.958;5.842;2023-07-22T07:38:33;17.80;91.70
39021;DHT22;25188;51.958;5.842;2023-07-22T07:41:02;17.90;91.60
39021;DHT22;25188;51.958;5.842;2023-07-22T07:43:28;18.00;91.50
39021;DHT22;25188;51.958;5.842;2023-07-22T07:46:13;18.10;91.70
39021;DHT22;25188;51.958;5.842;2023-07-22T07:48:39;18.20;91.40
39021;DHT22;25188;51.958;5.842;2023-07-22T07:51:05;18.20;91.10
39021;DHT22;25188;51.958;5.842;2023-07-22T07:53:31;18.30;91.10
39021;DHT22;25188;51.958;5.842;2023-07-22T07:55:57;18.30;91.20
39021;DHT22;25188;51.958;5.842;2023-07-22T07:58:22;18.40;90.90
39021;DHT22;25188;51.958;5.842;2023-07-22T08:00:48;18.50;90.70
39021;DHT22;25188;51.958;5.842;2023-07-22T08:03:13;18.60;90.50
39021;DHT22;25188;51.958;5.842;2023-07-22T08:05:39;18.80;90.30
39021;DHT22;25188;51.958;5.842;2023-07-22T08:08:05;18.90;90.20
39021;DHT22;25188;51.958;5.842;2023-07-22T08:10:31;19.00;89.70
39021;DHT22;25188;51.958;5.842;2023-07-22T08:12:56;19.00;89.00
39021;DHT22;25188;51.958;5.842;2023-07-22T08:15:22;19.10;88.40
39021;DHT22;25188;51.958;5.842;2023-07-22T08:17:47;19.20;88.10
39021;DHT22;25188;51.958;5.842;2023-07-22T08:20:13;19.30;87.30
39021;DHT22;25188;51.958;5.842;2023-07-22T08:22:39;19.40;86.70
39021;DHT22;25188;51.958;5.842;2023-07-22T08:25:05;19.40;86.10
39021;DHT22;25188;51.958;5.842;2023-07-22T08:27:30;19.50;85.60
39021;DHT22;25188;51.958;5.842;2023-07-22T08:29:56;19.60;84.90
39021;DHT22;25188;51.958;5.842;2023-07-22T08:32:21;19.60;84.50
39021;DHT22;25188;51.958;5.842;2023-07-22T08:34:47;19.70;84.30
39021;DHT22;25188;51.958;5.842;2023-07-22T08:37:13;19.80;83.70
39021;DHT22;25188;51.958;5.842;2023-07-22T08:39:38;19.80;83.30
39021;DHT22;25188;51.958;5.842;2023-07-22T08:42:04;19.90;83.40
39021;DHT22;25188;51.958;5.842;2023-07-22T08:44:33;20.00;83.00
39021;DHT22;25188;51.958;5.842;2023-07-22T08:47:03;20.10;82.30
39021;DHT22;25188;51.958;5.842;2023-07-22T08:49:32;20.10;81.80
39021;DHT22;25188;51.958;5.842;2023-07-22T08:51:59;20.20;81.00
39021;DHT22;25188;51.958;5.842;2023-07-22T08:54:25;20.30;80.90
39021;DHT22;25188;51.958;5.842;2023-07-22T08:56:51;20.30;80.70
39021;DHT22;25188;51.958;5.842;2023-07-22T08:59:18;20.30;80.50
39021;DHT22;25188;51.958;5.842;2023-07-22T09:01:44;20.40;80.10
39021;DHT22;25188;51.958;5.842;2023-07-22T09:04:10;20.40;79.80
39021;DHT22;25188;51.958;5.842;2023-07-22T09:06:36;20.40;79.10
39021;DHT22;25188;51.958;5.842;2023-07-22T09:09:02;20.40;78.40
39021;DHT22;25188;51.958;5.842;2023-07-22T09:11:33;20.40;78.00
39021;DHT22;25188;51.958;5.842;2023-07-22T09:14:00;20.40;77.80
39021;DHT22;25188;51.958;5.842;2023-07-22T09:16:27;20.40;77.40
39021;DHT22;25188;51.958;5.842;2023-07-22T09:19:00;20.40;77.30
39021;DHT22;25188;51.958;5.842;2023-07-22T09:21:26;20.50;77.30
39021;DHT22;25188;51.958;5.842;2023-07-22T09:23:53;20.60;77.40
39021;DHT22;25188;51.958;5.842;2023-07-22T09:26:19;20.70;77.40
39021;DHT22;25188;51.958;5.842;2023-07-22T09:28:54;20.70;76.80
39021;DHT22;25188;51.958;5.842;2023-07-22T09:31:26;20.70;75.80
39021;DHT22;25188;51.958;5.842;2023-07-22T09:33:54;20.70;75.30
39021;DHT22;25188;51.958;5.842;2023-07-22T09:36:20;20.60;74.60
39021;DHT22;25188;51.958;5.842;2023-07-22T09:38:59;20.70;74.80
39021;DHT22;25188;51.958;5.842;2023-07-22T09:41:28;20.70;74.40
39021;DHT22;25188;51.958;5.842;2023-07-22T09:43:55;20.70;73.90
39021;DHT22;25188;51.958;5.842;2023-07-22T09:46:22;20.80;74.20
39021;DHT22;25188;51.958;5.842;2023-07-22T09:48:55;20.90;73.80
39021;DHT22;25188;51.958;5.842;2023-07-22T09:51:21;21.10;73.30
39021;DHT22;25188;51.958;5.842;2023-07-22T09:53:51;21.10;73.20
39021;DHT22;25188;51.958;5.842;2023-07-22T09:56:24;21.20;73.10
39021;DHT22;25188;51.958;5.842;2023-07-22T09:58:51;21.30;72.80
39021;DHT22;25188;51.958;5.842;2023-07-22T10:01:19;21.40;71.90
39021;DHT22;25188;51.958;5.842;2023-07-22T10:03:47;21.50;71.30
39021;DHT22;25188;51.958;5.842;2023-07-22T10:06:15;21.50;70.70
39021;DHT22;25188;51.958;5.842;2023-07-22T10:08:43;21.50;70.50
39021;DHT22;25188;51.958;5.842;2023-07-22T10:11:12;21.60;71.30
39021;DHT22;25188;51.958;5.842;2023-07-22T10:13:38;21.70;70.30
39021;DHT22;25188;51.958;5.842;2023-07-22T10:16:05;21.70;70.00
39021;DHT22;25188;51.958;5.842;2023-07-22T10:18:32;21.80;70.30
39021;DHT22;25188;51.958;5.842;2023-07-22T10:20:57;21.90;70.20
39021;DHT22;25188;51.958;5.842;2023-07-22T10:23:25;21.90;70.20
39021;DHT22;25188;51.958;5.842;2023-07-22T10:25:53;22.10;70.10
39021;DHT22;25188;51.958;5.842;2023-07-22T10:28:22;22.20;69.40
39021;DHT22;25188;51.958;5.842;2023-07-22T10:30:49;22.20;69.10
39021;DHT22;25188;51.958;5.842;2023-07-22T10:33:16;22.30;68.70
39021;DHT22;25188;51.958;5.842;2023-07-22T10:35:43;22.40;68.60
39021;DHT22;25188;51.958;5.842;2023-07-22T10:38:15;22.50;68.70
39021;DHT22;25188;51.958;5.842;2023-07-22T10:40:53;22.60;68.30
39021;DHT22;25188;51.958;5.842;2023-07-22T10:43:33;22.60;67.30
39021;DHT22;25188;51.958;5.842;2023-07-22T10:46:12;22.60;66.30
39021;DHT22;25188;51.958;5.842;2023-07-22T10:48:40;22.60;66.40
39021;DHT22;25188;51.958;5.842;2023-07-22T10:51:14;22.60;65.90
39021;DHT22;25188;51.958;5.842;2023-07-22T10:53:45;22.50;66.40
39021;DHT22;25188;51.958;5.842;2023-07-22T10:56:18;22.60;66.80
39021;DHT22;25188;51.958;5.842;2023-07-22T11:04:22;22.40;65.00
39021;DHT22;25188;51.958;5.842;2023-07-22T11:07:00;22.30;65.20
39021;DHT22;25188;51.958;5.842;2023-07-22T11:14:30;21.90;64.50
39021;DHT22;25188;51.958;5.842;2023-07-22T11:17:01;21.80;64.50
39021;DHT22;25188;51.958;5.842;2023-07-22T11:19:29;21.70;65.00
39021;DHT22;25188;51.958;5.842;2023-07-22T11:21:55;21.60;65.50
39021;DHT22;25188;51.958;5.842;2023-07-22T11:24:22;21.50;65.90
39021;DHT22;25188;51.958;5.842;2023-07-22T11:26:49;21.40;65.80
39021;DHT22;25188;51.958;5.842;2023-07-22T11:29:15;21.40;66.10
39021;DHT22;25188;51.958;5.842;2023-07-22T11:31:43;21.30;66.10
39021;DHT22;25188;51.958;5.842;2023-07-22T11:34:14;21.30;66.40
39021;DHT22;25188;51.958;5.842;2023-07-22T11:36:41;21.30;66.60
39021;DHT22;25188;51.958;5.842;2023-07-22T11:39:09;21.20;66.90
39021;DHT22;25188;51.958;5.842;2023-07-22T11:41:35;21.20;67.20
39021;DHT22;25188;51.958;5.842;2023-07-22T11:44:02;21.20;67.50
39021;DHT22;25188;51.958;5.842;2023-07-22T11:46:34;21.30;67.70
39021;DHT22;25188;51.958;5.842;2023-07-22T11:49:01;21.40;67.50
39021;DHT22;25188;51.958;5.842;2023-07-22T11:51:27;21.40;67.10
39021;DHT22;25188;51.958;5.842;2023-07-22T11:53:54;21.30;67.00
39021;DHT22;25188;51.958;5.842;2023-07-22T11:56:27;21.30;66.50
39021;DHT22;25188;51.958;5.842;2023-07-22T11:58:55;21.20;66.80
39021;DHT22;25188;51.958;5.842;2023-07-22T12:01:21;21.10;66.70
39021;DHT22;25188;51.958;5.842;2023-07-22T12:03:47;21.10;66.90
39021;DHT22;25188;51.958;5.842;2023-07-22T12:06:13;21.00;66.80
39021;DHT22;25188;51.958;5.842;2023-07-22T12:08:47;21.10;66.90
39021;DHT22;25188;51.958;5.842;2023-07-22T12:11:23;21.30;67.20
39021;DHT22;25188;51.958;5.842;2023-07-22T12:14:12;21.50;67.30
39021;DHT22;25188;51.958;5.842;2023-07-22T12:16:41;22.00;67.40
39021;DHT22;25188;51.958;5.842;2023-07-22T12:19:10;22.20;66.70
39021;DHT22;25188;51.958;5.842;2023-07-22T12:21:35;22.30;65.90
39021;DHT22;25188;51.958;5.842;2023-07-22T12:24:01;22.40;64.90
39021;DHT22;25188;51.958;5.842;2023-07-22T12:26:27;22.30;64.50
39021;DHT22;25188;51.958;5.842;2023-07-22T12:28:53;22.30;63.90
39021;DHT22;25188;51.958;5.842;2023-07-22T12:31:19;22.10;63.30
39021;DHT22;25188;51.958;5.842;2023-07-22T12:33:45;22.00;63.30
39021;DHT22;25188;51.958;5.842;2023-07-22T12:36:11;21.90;63.50
39021;DHT22;25188;51.958;5.842;2023-07-22T12:38:37;21.70;63.70
39021;DHT22;25188;51.958;5.842;2023-07-22T12:41:03;21.60;63.60
39021;DHT22;25188;51.958;5.842;2023-07-22T12:43:29;21.50;63.70
39021;DHT22;25188;51.958;5.842;2023-07-22T12:45:55;21.30;65.90
39021;DHT22;25188;51.958;5.842;2023-07-22T12:48:21;21.10;69.30
39021;DHT22;25188;51.958;5.842;2023-07-22T12:50:47;20.80;71.70
39021;DHT22;25188;51.958;5.842;2023-07-22T12:53:13;20.40;72.40
39021;DHT22;25188;51.958;5.842;2023-07-22T12:55:39;20.10;73.90
39021;DHT22;25188;51.958;5.842;2023-07-22T12:58:05;19.90;74.70
39021;DHT22;25188;51.958;5.842;2023-07-22T13:00:30;19.70;76.10
39021;DHT22;25188;51.958;5.842;2023-07-22T13:02:56;19.60;76.30
39021;DHT22;25188;51.958;5.842;2023-07-22T13:05:22;19.60;77.00
39021;DHT22;25188;51.958;5.842;2023-07-22T13:07:48;19.50;76.90
39021;DHT22;25188;51.958;5.842;2023-07-22T13:10:15;19.60;76.90
39021;DHT22;25188;51.958;5.842;2023-07-22T13:12:43;19.80;77.40
39021;DHT22;25188;51.958;5.842;2023-07-22T13:15:09;20.00;77.70
39021;DHT22;25188;51.958;5.842;2023-07-22T13:17:35;20.50;78.20
39021;DHT22;25188;51.958;5.842;2023-07-22T13:20:02;21.00;78.30
39021;DHT22;25188;51.958;5.842;2023-07-22T13:22:30;21.40;77.20
39021;DHT22;25188;51.958;5.842;2023-07-22T13:24:56;21.80;75.90
39021;DHT22;25188;51.958;5.842;2023-07-22T13:27:22;22.10;75.10
39021;DHT22;25188;51.958;5.842;2023-07-22T13:29:47;22.40;74.20
39021;DHT22;25188;51.958;5.842;2023-07-22T13:32:13;22.60;73.30
39021;DHT22;25188;51.958;5.842;2023-07-22T13:34:38;22.70;72.20
39021;DHT22;25188;51.958;5.842;2023-07-22T13:37:04;22.80;71.10
39021;DHT22;25188;51.958;5.842;2023-07-22T13:39:31;22.70;70.50
39021;DHT22;25188;51.958;5.842;2023-07-22T13:41:56;22.60;70.00
39021;DHT22;25188;51.958;5.842;2023-07-22T13:44:22;22.50;69.00
39021;DHT22;25188;51.958;5.842;2023-07-22T13:46:48;22.30;68.30
39021;DHT22;25188;51.958;5.842;2023-07-22T13:49:16;22.00;68.70
39021;DHT22;25188;51.958;5.842;2023-07-22T13:51:43;21.80;69.10
39021;DHT22;25188;51.958;5.842;2023-07-22T13:54:08;21.70;69.20
39021;DHT22;25188;51.958;5.842;2023-07-22T13:56:34;21.50;69.40
39021;DHT22;25188;51.958;5.842;2023-07-22T13:59:00;21.30;69.90
39021;DHT22;25188;51.958;5.842;2023-07-22T14:01:26;21.20;70.40
39021;DHT22;25188;51.958;5.842;2023-07-22T14:03:53;21.20;70.70
39021;DHT22;25188;51.958;5.842;2023-07-22T14:06:19;21.20;71.10
39021;DHT22;25188;51.958;5.842;2023-07-22T14:08:44;21.00;71.30
39021;DHT22;25188;51.958;5.842;2023-07-22T14:11:10;20.90;71.70
39021;DHT22;25188;51.958;5.842;2023-07-22T14:13:36;20.80;72.10
39021;DHT22;25188;51.958;5.842;2023-07-22T14:16:02;20.80;72.40
39021;DHT22;25188;51.958;5.842;2023-07-22T14:18:29;20.70;72.60
39021;DHT22;25188;51.958;5.842;2023-07-22T14:20:57;20.60;72.80
39021;DHT22;25188;51.958;5.842;2023-07-22T14:23:22;20.60;73.00
39021;DHT22;25188;51.958;5.842;2023-07-22T14:25:51;20.60;73.30
39021;DHT22;25188;51.958;5.842;2023-07-22T14:28:17;20.50;73.60
39021;DHT22;25188;51.958;5.842;2023-07-22T14:30:42;20.60;74.10
39021;DHT22;25188;51.958;5.842;2023-07-22T14:33:08;20.60;74.70
39021;DHT22;25188;51.958;5.842;2023-07-22T14:35:33;20.70;74.70
39021;DHT22;25188;51.958;5.842;2023-07-22T14:38:00;20.70;74.20
39021;DHT22;25188;51.958;5.842;2023-07-22T14:40:26;20.70;74.00
39021;DHT22;25188;51.958;5.842;2023-07-22T14:42:52;20.80;73.90
39021;DHT22;25188;51.958;5.842;2023-07-22T14:45:18;20.90;73.90
39021;DHT22;25188;51.958;5.842;2023-07-22T14:47:44;21.00;73.80
39021;DHT22;25188;51.958;5.842;2023-07-22T14:50:11;21.20;73.50
39021;DHT22;25188;51.958;5.842;2023-07-22T14:52:37;21.40;73.40
39021;DHT22;25188;51.958;5.842;2023-07-22T14:55:05;21.60;72.60
39021;DHT22;25188;51.958;5.842;2023-07-22T14:57:31;21.70;72.00
39021;DHT22;25188;51.958;5.842;2023-07-22T14:59:57;21.80;71.50
39021;DHT22;25188;51.958;5.842;2023-07-22T15:02:23;21.70;71.10
39021;DHT22;25188;51.958;5.842;2023-07-22T15:04:49;21.60;71.20
39021;DHT22;25188;51.958;5.842;2023-07-22T15:07:15;21.50;71.10
39021;DHT22;25188;51.958;5.842;2023-07-22T15:09:41;21.40;71.60
39021;DHT22;25188;51.958;5.842;2023-07-22T15:12:07;21.50;71.70
39021;DHT22;25188;51.958;5.842;2023-07-22T15:14:33;21.60;71.60
39021;DHT22;25188;51.958;5.842;2023-07-22T15:16:59;21.70;71.40
39021;DHT22;25188;51.958;5.842;2023-07-22T15:19:25;21.70;70.50
39021;DHT22;25188;51.958;5.842;2023-07-22T15:21:51;21.70;70.30
39021;DHT22;25188;51.958;5.842;2023-07-22T15:24:18;21.70;70.10
39021;DHT22;25188;51.958;5.842;2023-07-22T15:26:44;21.80;69.70
39021;DHT22;25188;51.958;5.842;2023-07-22T15:29:09;21.70;69.80
39021;DHT22;25188;51.958;5.842;2023-07-22T15:31:35;21.60;69.40
39021;DHT22;25188;51.958;5.842;2023-07-22T15:34:00;21.50;69.90
39021;DHT22;25188;51.958;5.842;2023-07-22T15:36:26;21.40;70.00
39021;DHT22;25188;51.958;5.842;2023-07-22T15:38:52;21.30;70.20